Time;durP1;ratioP1;P1;durP2;ratioP2;P2;SDS_P1;SDS_P2;PMS_P1;PMS_P2;Temp;Humidity;BMP_temperature;BMP_pressure;BME280_temperature;BME280_humidity;BME280_pressure;Samples;Min_cycle;Max_cycle;Signal;HPM_P1;HPM_P2
2021/08/20 00:02:56;;;;;;;2.17;1.08;;;;;;;-148.56;100.00;61375.16;4990687;28;20436;-33
2021/08/20 00:06:20;;;;;;;4.00;1.10;;;;;;;-148.56;100.00;61375.16;4985515;28;20060;-32
2021/08/20 00:09:44;;;;;;;1.85;1.05;;;;;;;-148.56;100.00;61375.16;4984695;28;20041;-28
2021/08/20 00:13:08;;;;;;;5.15;1.30;;;;;;;-148.56;100.00;61375.16;4991626;28;20029;-33
2021/08/20 00:16:31;;;;;;;3.47;1.10;;;;;;;-148.56;100.00;61375.16;4993103;28;20448;-28
2021/08/20 00:19:55;;;;;;;1.80;1.10;;;;;;;-148.56;100.00;61375.16;4982047;28;20033;-33
2021/08/20 00:23:19;;;;;;;2.60;0.93;;;;;;;-148.56;100.00;61375.16;4985129;28;20042;-29
2021/08/20 00:26:43;;;;;;;1.30;0.90;;;;;;;-148.56;100.00;61375.16;4990757;28;20127;-31
2021/08/20 00:30:08;;;;;;;3.35;1.05;;;;;;;-148.56;100.00;61375.16;4995636;28;20500;-29
2021/08/20 00:33:36;;;;;;;3.20;1.30;;;;;;;-148.56;100.00;61375.16;4991918;28;20139;-29
2021/08/20 00:37:00;;;;;;;1.77;0.98;;;;;;;-148.56;100.00;61375.16;4994208;28;20030;-33
2021/08/20 00:40:24;;;;;;;2.30;1.30;;;;;;;-148.56;100.00;61375.16;4993891;28;20033;-27
2021/08/20 00:43:48;;;;;;;2.17;1.30;;;;;;;-148.56;100.00;61375.16;4994167;28;20026;-28
2021/08/20 00:47:12;;;;;;;2.17;1.13;;;;;;;-148.56;100.00;61375.16;4996825;28;20124;-29
2021/08/20 00:50:36;;;;;;;1.02;0.80;;;;;;;-148.56;100.00;61375.16;4996400;28;20037;-32
2021/08/20 00:54:00;;;;;;;1.95;1.02;;;;;;;-148.56;100.00;61375.16;4992836;28;20033;-30
2021/08/20 00:57:23;;;;;;;2.67;1.20;;;;;;;-148.56;100.00;61375.16;4993096;28;20034;-30
2021/08/20 01:00:48;;;;;;;2.78;1.27;;;;;;;-148.56;100.00;61375.16;4994857;28;20112;-30
2021/08/20 01:04:12;;;;;;;1.35;0.90;;;;;;;-148.56;100.00;61375.16;4993289;28;20029;-30
2021/08/20 01:07:37;;;;;;;2.58;1.40;;;;;;;-148.56;100.00;61375.16;4993217;28;20514;-34
2021/08/20 01:11:01;;;;;;;1.35;0.90;;;;;;;-148.56;100.00;61375.16;4997647;28;20029;-28
2021/08/20 01:14:27;;;;;;;2.30;1.10;;;;;;;-148.56;100.00;61375.16;4985627;28;20093;-28
2021/08/20 01:17:51;;;;;;;2.65;1.00;;;;;;;-148.56;100.00;61375.16;4988928;28;20028;-29
2021/08/20 01:21:16;;;;;;;2.65;0.90;;;;;;;-148.56;100.00;61375.16;4995742;28;20153;-31
2021/08/20 01:24:47;;;;;;;2.90;0.80;;;;;;;-148.56;100.00;61375.16;4992834;28;20112;-29
2021/08/20 01:28:09;;;;;;;1.40;0.90;;;;;;;-148.56;100.00;61375.16;4996438;28;20648;-31
2021/08/20 01:31:33;;;;;;;;;;;;;;;-148.56;100.00;61375.16;4995887;28;20879;-29
2021/08/20 01:34:50;;;;;;;2.80;1.17;;;;;;;-148.56;100.00;61375.16;4989774;28;20299;-30
2021/08/20 01:38:14;;;;;;;1.23;0.93;;;;;;;-148.56;100.00;61375.16;4994512;28;20605;-33
2021/08/20 01:41:38;;;;;;;2.38;0.82;;;;;;;-148.56;100.00;61375.16;4992685;28;20165;-29
2021/08/20 01:45:02;;;;;;;1.98;1.00;;;;;;;-148.56;100.00;61375.16;4989923;28;20511;-31
2021/08/20 01:48:26;;;;;;;1.50;1.05;;;;;;;-148.56;100.00;61375.16;4987084;28;20536;-30
2021/08/20 01:51:50;;;;;;;2.08;0.98;;;;;;;-148.56;100.00;61375.16;4992747;28;20057;-32
2021/08/20 01:55:14;;;;;;;1.75;0.70;;;;;;;-148.56;100.00;61375.16;4980618;28;20061;-29
2021/08/20 01:58:38;;;;;;;2.80;1.10;;;;;;;-148.56;100.00;61375.16;4991876;28;20148;-28
2021/08/20 02:02:02;;;;;;;1.73;0.88;;;;;;;-148.56;100.00;61375.16;4989487;28;20512;-29
2021/08/20 02:05:25;;;;;;;2.30;0.82;;;;;;;-148.56;100.00;61375.16;4993793;28;20038;-33
2021/08/20 02:08:48;;;;;;;1.25;0.90;;;;;;;-148.56;100.00;61375.16;4995053;28;20902;-32
2021/08/20 02:12:13;;;;;;;1.42;0.90;;;;;;;-148.56;100.00;61375.16;4991307;28;20046;-30
2021/08/20 02:15:37;;;;;;;1.15;0.85;;;;;;;-148.56;100.00;61375.16;4990644;28;20072;-29
2021/08/20 02:19:01;;;;;;;1.75;1.00;;;;;;;-148.56;100.00;61375.16;4995457;28;20131;-33
2021/08/20 02:22:25;;;;;;;2.15;0.80;;;;;;;-148.56;100.00;61375.16;5001039;28;20040;-30
2021/08/20 02:25:51;;;;;;;1.60;0.60;;;;;;;-148.56;100.00;61375.16;4993129;28;20088;-31
2021/08/20 02:29:15;;;;;;;1.20;0.77;;;;;;;-148.56;100.00;61375.16;4997115;28;20022;-33
2021/08/20 02:32:38;;;;;;;2.47;1.08;;;;;;;-148.56;100.00;61375.16;5000372;28;20392;-32
2021/08/20 02:35:37;;;;;;;3.38;0.68;;;;;;;-148.56;100.00;61375.16;4992692;28;20113;-32
2021/08/20 02:39:01;;;;;;;1.17;0.60;;;;;;;-148.56;100.00;61375.16;4994060;28;20901;-29
2021/08/20 02:42:23;;;;;;;1.02;0.70;;;;;;;-148.56;100.00;61375.16;4992592;28;20061;-30
2021/08/20 02:45:47;;;;;;;1.42;0.90;;;;;;;-148.56;100.00;61375.16;4993753;28;20701;-31
2021/08/20 02:49:11;;;;;;;1.10;0.70;;;;;;;-148.56;100.00;61375.16;4998417;28;20962;-31
2021/08/20 02:52:35;;;;;;;1.13;0.70;;;;;;;-148.56;100.00;61375.16;4997668;28;20061;-30
2021/08/20 02:55:58;;;;;;;1.45;0.70;;;;;;;-148.56;100.00;61375.16;4994113;28;20034;-30
2021/08/20 02:59:22;;;;;;;1.38;0.75;;;;;;;-148.56;100.00;61375.16;4988930;28;20022;-29
2021/08/20 03:02:46;;;;;;;1.55;0.70;;;;;;;-148.56;100.00;61375.16;4999156;28;20029;-28
2021/08/20 03:06:10;;;;;;;1.35;0.70;;;;;;;-148.56;100.00;61375.16;4993560;28;20034;-31
2021/08/20 03:09:37;;;;;;;1.30;0.70;;;;;;;-148.56;100.00;61375.16;4999099;28;20504;-28
2021/08/20 03:13:01;;;;;;;1.02;0.73;;;;;;;-148.56;100.00;61375.16;4998776;28;20061;-29
2021/08/20 03:16:25;;;;;;;0.65;0.65;;;;;;;-148.56;100.00;61375.16;4989217;28;20039;-30
2021/08/20 03:19:51;;;;;;;2.67;1.00;;;;;;;-148.56;100.00;61375.16;4994238;28;20910;-30
2021/08/20 03:23:15;;;;;;;0.80;0.80;;;;;;;-148.56;100.00;61375.16;4993369;28;20042;-30
2021/08/20 03:26:39;;;;;;;2.08;0.93;;;;;;;-148.56;100.00;61375.16;4999134;28;20033;-33
2021/08/20 03:30:03;;;;;;;1.60;0.82;;;;;;;-148.56;100.00;61375.16;4994914;28;20053;-31
2021/08/20 03:33:27;;;;;;;1.92;0.60;;;;;;;-148.56;100.00;61375.16;4998880;28;20121;-27
2021/08/20 03:36:51;;;;;;;1.30;0.73;;;;;;;-148.56;100.00;61375.16;4998569;28;21051;-30
2021/08/20 03:40:12;;;;;;;1.38;0.60;;;;;;;-148.56;100.00;61375.16;4994725;28;20049;-27
2021/08/20 03:43:36;;;;;;;0.60;0.60;;;;;;;-148.56;100.00;61375.16;4989950;28;20034;-31
2021/08/20 03:47:00;;;;;;;0.65;0.43;;;;;;;-148.56;100.00;61375.16;4996512;28;20651;-30
2021/08/20 03:50:24;;;;;;;1.10;0.60;;;;;;;-148.56;100.00;61375.16;4997891;28;20073;-29
2021/08/20 03:53:48;;;;;;;1.17;0.65;;;;;;;-148.56;100.00;61375.16;4996548;28;20514;-30
2021/08/20 03:57:11;;;;;;;0.55;0.55;;;;;;;-148.56;100.00;61375.16;4998873;28;20120;-28
2021/08/20 04:00:35;;;;;;;1.35;0.70;;;;;;;-148.56;100.00;61375.16;4998816;28;20551;-29
2021/08/20 04:03:59;;;;;;;1.95;0.85;;;;;;;-148.56;100.00;61375.16;4996174;28;20554;-30
2021/08/20 04:07:23;;;;;;;1.98;0.90;;;;;;;-148.56;100.00;61375.16;4996282;28;20081;-30
2021/08/20 04:10:47;;;;;;;1.75;0.82;;;;;;;-148.56;100.00;61375.16;4997130;28;20109;-31
2021/08/20 04:14:11;;;;;;;3.25;0.93;;;;;;;-148.56;100.00;61375.16;4997441;28;20041;-30
2021/08/20 04:17:35;;;;;;;2.22;0.60;;;;;;;-148.56;100.00;61375.16;4992295;28;20041;-31
2021/08/20 04:20:59;;;;;;;0.50;0.50;;;;;;;-148.56;100.00;61375.16;4988491;28;20382;-29
2021/08/20 04:24:22;;;;;;;1.10;0.70;;;;;;;-148.56;100.00;61375.16;4991518;28;20034;-30
2021/08/20 04:27:46;;;;;;;1.00;0.65;;;;;;;-148.56;100.00;61375.16;4994223;28;20088;-29
2021/08/20 04:31:11;;;;;;;1.23;0.77;;;;;;;-148.56;100.00;61375.16;4989970;28;20040;-35
2021/08/20 04:34:34;;;;;;;0.95;0.55;;;;;;;-148.56;100.00;61375.16;4993626;28;20268;-30
2021/08/20 04:37:58;;;;;;;1.10;0.60;;;;;;;-148.56;100.00;61375.16;4992766;28;20121;-29
2021/08/20 04:41:22;;;;;;;2.55;0.90;;;;;;;-148.56;100.00;61375.16;4992678;28;20064;-31
2021/08/20 04:44:45;;;;;;;1.00;0.70;;;;;;;-148.56;100.00;61375.16;4989608;28;20053;-30
2021/08/20 04:48:09;;;;;;;1.20;0.63;;;;;;;-148.56;100.00;61375.16;4996159;28;20042;-30
2021/08/20 04:51:23;;;;;;;0.60;0.50;;;;;;;-148.56;31.39;61375.16;4994217;28;20044;-29
2021/08/20 04:54:47;;;;;;;0.77;0.70;;;;;;;-148.56;100.00;61375.16;4998146;28;20061;-29
2021/08/20 04:58:11;;;;;;;2.25;0.75;;;;;;;-148.56;100.00;61375.16;4992457;28;20123;-30
2021/08/20 05:01:35;;;;;;;0.73;0.60;;;;;;;-148.56;100.00;61375.16;4993116;28;20435;-28
2021/08/20 05:04:59;;;;;;;1.08;0.70;;;;;;;-148.56;100.00;61375.16;4986196;28;20030;-31
2021/08/20 05:08:23;;;;;;;0.95;0.63;;;;;;;-148.56;100.00;61375.16;4989223;28;20033;-32
2021/08/20 05:11:47;;;;;;;1.77;0.60;;;;;;;-148.56;100.00;61375.16;4995532;28;20026;-30
2021/08/20 05:15:11;;;;;;;0.90;0.75;;;;;;;-148.56;100.00;61375.16;4992034;28;20560;-32
2021/08/20 05:17:57;;;;;;;1.10;0.70;;;;;;;-148.56;100.00;61375.16;4989841;28;20093;-29
2021/08/20 05:21:22;;;;;;;0.55;0.55;;;;;;;-148.56;100.00;61375.16;4993969;28;20685;-32
2021/08/20 05:24:46;;;;;;;0.63;0.50;;;;;;;-148.56;100.00;61375.16;4991805;28;20100;-31
2021/08/20 05:28:12;;;;;;;1.25;0.70;;;;;;;-148.56;100.00;61375.16;4996157;28;20044;-31
2021/08/20 05:31:36;;;;;;;1.50;0.77;;;;;;;-148.56;100.00;61375.16;4992268;28;20810;-32
2021/08/20 05:34:54;;;;;;;0.73;0.68;;;;;;;-148.56;100.00;61375.16;4995358;28;20043;-29
2021/08/20 05:38:18;;;;;;;0.70;0.70;;;;;;;-148.56;100.00;61375.16;4994925;28;20030;-30
2021/08/20 05:41:42;;;;;;;1.20;0.55;;;;;;;-148.56;100.00;61375.16;4996864;28;20029;-33
2021/08/20 05:45:06;;;;;;;2.70;0.82;;;;;;;-148.56;100.00;61375.16;4997177;28;20037;-31
2021/08/20 05:48:30;;;;;;;0.70;0.70;;;;;;;-148.56;100.00;61375.16;4999347;28;20072;-31
2021/08/20 05:51:54;;;;;;;3.45;0.73;;;;;;;-148.56;100.00;61375.16;4987977;28;20117;-30
2021/08/20 05:55:18;;;;;;;1.30;0.80;;;;;;;-148.56;100.00;61375.16;4993304;28;20967;-32
2021/08/20 05:58:42;;;;;;;6.18;0.75;;;;;;;-148.56;100.00;61375.16;4994799;28;20104;-31
2021/08/20 06:02:05;;;;;;;3.38;0.73;;;;;;;-148.56;100.00;61375.16;4990384;28;20036;-33
2021/08/20 06:05:29;;;;;;;2.20;0.80;;;;;;;-148.56;100.00;61375.16;4991009;28;20153;-30
2021/08/20 06:08:53;;;;;;;1.42;0.88;;;;;;;-148.56;100.00;61375.16;4986489;28;20041;-27
2021/08/20 06:12:14;;;;;;;0.80;0.77;;;;;;;-148.56;100.00;61375.16;4993145;28;20032;-28
2021/08/20 06:15:38;;;;;;;4.03;0.80;;;;;;;-148.56;100.00;61375.16;4986071;28;20029;-30
2021/08/20 06:19:02;;;;;;;0.80;0.50;;;;;;;-148.56;100.00;61375.16;4992693;28;20033;-30
2021/08/20 06:22:26;;;;;;;2.00;0.60;;;;;;;-148.56;100.00;61375.16;4983122;28;20133;-27
2021/08/20 06:25:50;;;;;;;1.35;0.70;;;;;;;-148.56;100.00;61375.16;4992999;28;20060;-34
2021/08/20 06:29:15;;;;;;;0.73;0.50;;;;;;;-148.56;100.00;61375.16;4985368;28;22746;-29
2021/08/20 06:32:39;;;;;;;1.05;0.75;;;;;;;-148.56;100.00;61375.16;4983235;28;20033;-28
2021/08/20 06:36:03;;;;;;;7.75;1.23;;;;;;;-148.56;100.00;61375.16;4985457;28;20036;-30
2021/08/20 06:39:27;;;;;;;10.63;1.63;;;;;;;-148.56;100.00;61375.16;4978735;28;20045;-29
2021/08/20 06:42:51;;;;;;;7.10;1.70;;;;;;;-148.56;100.00;61375.16;4990810;28;20040;-30
2021/08/20 06:46:15;;;;;;;7.95;1.50;;;;;;;-148.56;100.00;61375.16;4993221;28;20116;-29
2021/08/20 06:49:41;;;;;;;4.43;1.73;;;;;;;-148.56;100.00;61375.16;4990277;28;20143;-30
2021/08/20 06:53:08;;;;;;;9.10;2.25;;;;;;;-148.56;100.00;61375.16;4989891;28;20032;-29
2021/08/20 06:56:32;;;;;;;5.20;2.13;;;;;;;-148.56;100.00;61375.16;4989549;28;20030;-29
2021/08/20 06:59:57;;;;;;;6.47;2.28;;;;;;;-148.56;100.00;61375.16;4990778;28;20831;-28
2021/08/20 07:03:23;;;;;;;7.13;2.47;;;;;;;-148.56;100.00;61375.16;4997319;28;20033;-30
2021/08/20 07:06:47;;;;;;;10.52;2.78;;;;;;;-148.56;100.00;61375.16;4993279;28;20033;-34
2021/08/20 07:10:14;;;;;;;7.18;3.00;;;;;;;-148.56;100.00;61375.16;4995383;28;20026;-28
2021/08/20 07:13:38;;;;;;;8.20;3.00;;;;;;;-148.56;100.00;61375.16;4992797;28;20451;-28
2021/08/20 07:17:02;;;;;;;6.28;2.90;;;;;;;-148.56;100.00;61375.16;4991665;28;20033;-30
2021/08/20 07:20:26;;;;;;;5.00;3.20;;;;;;;-148.56;100.00;61375.16;4996413;28;20022;-30
2021/08/20 07:23:50;;;;;;;6.72;3.00;;;;;;;-148.56;100.00;61375.16;4997079;28;20313;-30
2021/08/20 07:27:13;;;;;;;4.30;2.60;;;;;;;-148.56;100.00;61375.16;4994942;28;20746;-29
2021/08/20 07:30:37;;;;;;;7.38;2.83;;;;;;;-148.56;100.00;61375.16;4988029;28;20144;-29
2021/08/20 07:34:01;;;;;;;5.25;2.95;;;;;;;-148.56;100.00;61375.16;4988200;28;20034;-29
2021/08/20 07:37:25;;;;;;;4.82;3.05;;;;;;;-148.56;100.00;61375.16;4993245;28;20144;-30
2021/08/20 07:40:49;;;;;;;6.18;3.00;;;;;;;-148.56;100.00;61375.16;4995485;28;20158;-29
2021/08/20 07:44:16;;;;;;;5.28;2.85;;;;;;;-148.56;100.00;61375.16;4993168;28;20026;-30
2021/08/20 07:47:47;;;;;;;3.22;2.40;;;;;;;-148.56;100.00;61375.16;4994421;28;20083;-29
2021/08/20 07:51:10;;;;;;;4.78;2.72;;;;;;;-148.56;100.00;61375.16;4993191;28;20026;-33
2021/08/20 07:54:34;;;;;;;5.88;3.20;;;;;;;-148.56;100.00;61375.16;4993741;28;20030;-33
2021/08/20 07:57:54;;;;;;;5.97;3.20;;;;;;;-148.56;100.00;61375.16;4996141;28;20076;-29
2021/08/20 08:01:18;;;;;;;9.65;2.75;;;;;;;-148.56;100.00;61375.16;4991290;28;20053;-28
2021/08/20 08:04:45;;;;;;;8.45;3.20;;;;;;;-148.56;100.00;61375.16;4992482;28;20141;-28
2021/08/20 08:08:09;;;;;;;9.88;2.90;;;;;;;-148.56;100.00;61375.16;4993487;28;20038;-29
2021/08/20 08:11:14;;;;;;;8.60;2.90;;;;;;;28.46;36.36;96628.06;4993301;28;20491;-30
2021/08/20 08:14:38;;;;;;;6.28;2.80;;;;;;;-148.56;100.00;61375.16;4992443;28;20025;-32
2021/08/20 08:18:02;;;;;;;6.28;3.60;;;;;;;-148.56;100.00;61375.16;4993709;28;20188;-33
2021/08/20 08:21:25;;;;;;;8.25;4.95;;;;;;;-148.56;100.00;61375.16;4994271;28;20091;-29
2021/08/20 08:24:49;;;;;;;6.57;3.50;;;;;;;-148.56;100.00;61375.16;4989644;28;20170;-29
2021/08/20 08:28:13;;;;;;;10.20;3.78;;;;;;;-148.56;100.00;61375.16;4990530;28;20033;-31
2021/08/20 08:31:38;;;;;;;9.43;3.47;;;;;;;-148.56;100.00;61375.16;4994649;28;20506;-29
2021/08/20 08:35:01;;;;;;;5.28;3.75;;;;;;;-148.56;100.00;61375.16;4992749;28;20069;-31
2021/08/20 08:38:25;;;;;;;5.88;3.67;;;;;;;-148.56;100.00;61375.16;4995976;28;20036;-31
2021/08/20 08:41:49;;;;;;;5.28;3.58;;;;;;;-148.56;100.00;61375.16;4988552;28;20034;-33
2021/08/20 08:45:13;;;;;;;6.35;3.33;;;;;;;-148.56;100.00;61375.16;4989936;28;20033;-29
2021/08/20 08:48:37;;;;;;;4.35;3.13;;;;;;;-148.56;100.00;61375.16;4996352;28;20041;-29
2021/08/20 08:52:03;;;;;;;6.03;2.83;;;;;;;-148.56;100.00;61375.16;4995146;28;20080;-31
2021/08/20 08:55:27;;;;;;;6.35;2.78;;;;;;;-148.56;100.00;61375.16;4983465;28;20053;-28
2021/08/20 08:58:51;;;;;;;3.45;2.72;;;;;;;-148.56;100.00;61375.16;4994502;28;20409;-29
2021/08/20 09:02:31;;;;;;;6.63;2.83;;;;;;;-148.56;100.00;61375.16;4995322;28;20091;-31
2021/08/20 09:05:59;;;;;;;6.85;3.00;;;;;;;-148.56;100.00;61375.16;4994829;28;20065;-27
2021/08/20 09:09:23;;;;;;;7.32;3.67;;;;;;;-148.56;100.00;61375.16;4981936;28;20041;-28
2021/08/20 09:12:54;;;;;;;14.00;4.20;;;;;;;-148.56;100.00;61375.16;4981189;28;20054;-29
2021/08/20 09:16:20;;;;;;;12.80;4.28;;;;;;;-148.56;100.00;61375.16;4982457;28;21058;-29
2021/08/20 09:19:44;;;;;;;8.77;4.03;;;;;;;-148.56;100.00;61375.16;4977352;28;20900;-29
2021/08/20 09:23:21;;;;;;;11.18;3.97;;;;;;;-148.56;100.00;61375.16;4986340;28;20081;-28
2021/08/20 09:26:45;;;;;;;14.02;4.13;;;;;;;-148.56;100.00;61375.16;4991098;28;20021;-30
2021/08/20 09:30:13;;;;;;;12.48;3.85;;;;;;;-148.56;100.00;61375.16;4994059;28;20034;-32
2021/08/20 09:33:44;;;;;;;13.45;4.07;;;;;;;-148.56;100.00;61375.16;4999237;28;20569;-29
2021/08/20 09:37:12;;;;;;;10.63;3.78;;;;;;;-148.56;100.00;61375.16;4989998;28;20042;-31
2021/08/20 09:40:49;;;;;;;7.95;3.75;;;;;;;-148.56;100.00;61375.16;4996328;28;20584;-32
2021/08/20 09:44:17;;;;;;;7.70;3.45;;;;;;;-148.56;100.00;61375.16;4995320;28;20666;-29
2021/08/20 09:47:42;;;;;;;6.90;3.17;;;;;;;-148.56;100.00;61375.16;4986443;28;20033;-29
2021/08/20 09:51:06;;;;;;;7.20;3.10;;;;;;;-148.56;100.00;61375.16;4991086;28;20026;-32
2021/08/20 09:54:31;;;;;;;5.15;2.95;;;;;;;-148.56;100.00;61375.16;4989178;28;20563;-31
2021/08/20 09:57:54;;;;;;;7.32;3.30;;;;;;;-148.56;100.00;61375.16;4988476;28;20041;-29
2021/08/20 10:01:18;;;;;;;6.28;3.22;;;;;;;-148.56;100.00;61375.16;4988675;28;20033;-29
2021/08/20 10:04:42;;;;;;;6.35;3.00;;;;;;;-148.56;100.00;61375.16;4992500;28;20030;-31
2021/08/20 10:08:09;;;;;;;5.20;2.60;;;;;;;-148.56;100.00;61375.16;4977959;28;20044;-29
2021/08/20 10:11:34;;;;;;;6.38;3.10;;;;;;;-148.56;100.00;61375.16;4981951;28;20538;-31
2021/08/20 10:14:59;;;;;;;10.05;2.83;;;;;;;-148.56;100.00;61375.16;4987514;28;20113;-33
2021/08/20 10:18:23;;;;;;;6.03;3.00;;;;;;;-148.56;100.00;61375.16;4993348;28;20125;-30
2021/08/20 10:21:46;;;;;;;7.28;3.05;;;;;;;-148.56;100.00;61375.16;4991309;28;20029;-36
2021/08/20 10:25:11;;;;;;;7.38;2.60;;;;;;;-148.56;100.00;61375.16;4992376;28;20597;-38
2021/08/20 10:28:35;;;;;;;5.18;3.00;;;;;;;-148.56;100.00;61375.16;4993819;28;20053;-33
2021/08/20 10:32:02;;;;;;;4.20;2.58;;;;;;;-148.56;100.00;61375.16;4991147;28;20041;-31
2021/08/20 10:35:47;;;;;;;4.93;2.60;;;;;;;-148.56;100.00;61375.16;4990363;28;20088;-29
2021/08/20 10:39:42;;;;;;;4.82;2.33;;;;;;;-148.56;100.00;61375.16;4998541;28;20029;-29
2021/08/20 10:43:06;;;;;;;3.08;2.50;;;;;;;-148.56;100.00;61375.16;4996046;28;20183;-27
2021/08/20 10:46:34;;;;;;;3.90;2.42;;;;;;;-148.56;100.00;61375.16;4994948;28;20112;-29
2021/08/20 10:50:13;;;;;;;7.80;2.78;;;;;;;-148.56;100.00;61375.16;4991343;28;20058;-28
2021/08/20 10:53:31;;;;;;;5.25;2.55;;;;;;;-148.56;100.00;61375.16;4989745;28;20044;-27
2021/08/20 10:57:29;;;;;;;5.20;2.70;;;;;;;-148.56;100.00;61375.16;4995091;28;20034;-29
2021/08/20 11:00:54;;;;;;;7.03;2.92;;;;;;;-148.56;100.00;61375.16;4999736;28;20026;-28
2021/08/20 11:04:55;;;;;;;6.13;3.17;;;;;;;-148.56;100.00;61375.16;4998610;28;20044;-28
2021/08/20 11:08:38;;;;;;;9.77;3.70;;;;;;;-148.56;100.00;61375.16;4998898;28;20034;-29
2021/08/20 11:12:02;;;;;;;9.20;3.40;;;;;;;-148.56;100.00;61375.16;5000753;28;20140;-31
2021/08/20 11:15:30;;;;;;;9.05;2.90;;;;;;;-148.56;100.00;61375.16;4994007;28;20057;-28
2021/08/20 11:19:04;;;;;;;10.23;3.22;;;;;;;-148.56;100.00;61375.16;4998226;28;20052;-28
2021/08/20 11:22:41;;;;;;;8.73;3.50;;;;;;;-148.56;100.00;61375.16;4997789;28;20045;-28
2021/08/20 11:26:05;;;;;;;10.98;3.20;;;;;;;-148.56;100.00;61375.16;4996844;28;20058;-31
2021/08/20 11:29:41;;;;;;;10.75;3.10;;;;;;;-148.56;100.00;61375.16;5007621;28;20475;-27
2021/08/20 11:33:13;;;;;;;8.27;2.88;;;;;;;-148.56;100.00;61375.16;5000061;28;20076;-28
2021/08/20 11:36:34;;;;;;;7.60;3.05;;;;;;;-148.56;100.00;61375.16;4996936;28;20036;-28
2021/08/20 11:40:02;;;;;;;7.28;3.08;;;;;;;-148.56;100.00;61375.16;4987850;28;20040;-28
2021/08/20 11:43:27;;;;;;;10.27;2.90;;;;;;;-148.56;100.00;61375.16;5000777;28;20026;-27
2021/08/20 11:46:53;;;;;;;6.75;2.90;;;;;;;-148.56;100.00;61375.16;4999294;28;20038;-28
2021/08/20 11:50:26;;;;;;;12.43;3.33;;;;;;;-148.56;100.00;61375.16;4999158;28;20026;-26
2021/08/20 11:53:50;;;;;;;8.20;3.20;;;;;;;-148.56;100.00;61375.16;4999714;28;20137;-29
2021/08/20 11:57:14;;;;;;;8.52;2.90;;;;;;;-148.56;100.00;61375.16;5000497;28;20045;-28
2021/08/20 12:00:50;;;;;;;6.25;2.78;;;;;;;-148.56;100.00;61375.16;5000169;28;20034;-28
2021/08/20 12:04:14;;;;;;;8.30;2.85;;;;;;;-148.56;100.00;61375.16;4998373;28;20127;-29
2021/08/20 12:07:38;;;;;;;6.55;2.78;;;;;;;-148.56;100.00;61375.16;4998683;28;20844;-27
2021/08/20 12:11:02;;;;;;;7.57;2.70;;;;;;;-148.56;100.00;61375.16;4998146;28;20025;-28
2021/08/20 12:14:27;;;;;;;7.97;3.10;;;;;;;-148.56;100.00;61375.16;4997272;28;20033;-26
2021/08/20 12:17:53;;;;;;;4.70;2.78;;;;;;;-148.56;100.00;61375.16;4993477;28;20507;-29
2021/08/20 12:21:18;;;;;;;6.63;3.17;;;;;;;-148.56;100.00;61375.16;4999626;28;20021;-28
2021/08/20 12:24:57;;;;;;;8.07;2.85;;;;;;;-148.56;100.00;61375.16;5000633;28;20115;-29
2021/08/20 12:28:22;;;;;;;5.30;2.38;;;;;;;-148.56;100.00;61375.16;4996473;28;20033;-30
2021/08/20 12:31:56;;;;;;;6.40;2.42;;;;;;;-148.56;100.00;61375.16;4999415;28;20038;-26
2021/08/20 12:35:26;;;;;;;3.40;2.40;;;;;;;-148.56;100.00;61375.16;4992323;28;20033;-27
2021/08/20 12:39:13;;;;;;;5.50;2.40;;;;;;;-148.56;100.00;61375.16;4998724;28;20018;-28
2021/08/20 12:42:44;;;;;;;5.93;2.50;;;;;;;-148.56;100.00;61375.16;4995775;28;20033;-28
2021/08/20 12:46:18;;;;;;;8.07;2.57;;;;;;;-148.56;100.00;61375.16;4995500;28;20061;-28
2021/08/20 12:50:15;;;;;;;6.05;2.25;;;;;;;-148.56;100.00;61375.16;4996886;28;20101;-28
2021/08/20 12:53:39;;;;;;;5.03;2.20;;;;;;;-148.56;100.00;61375.16;4997645;28;20531;-27
2021/08/20 12:57:03;;;;;;;4.35;2.35;;;;;;;-148.56;100.00;61375.16;4998237;28;20048;-27
2021/08/20 13:00:05;;;;;;;3.78;2.17;;;;;;;-148.56;100.00;61375.16;4996202;28;20111;-29
2021/08/20 13:03:13;;;;;;;3.47;2.03;;;;;;;-148.56;100.00;61375.16;5007373;28;20072;-28
2021/08/20 13:06:42;;;;;;;4.30;2.10;;;;;;;-148.56;100.00;61375.16;4987726;28;20041;-26
2021/08/20 13:09:45;;;;;;;4.50;2.28;;;;;;;-148.56;100.00;61375.16;4989727;28;20034;-28
2021/08/20 13:13:09;;;;;;;5.22;2.30;;;;;;;-148.56;100.00;61375.16;4983327;28;20046;-28
2021/08/20 13:16:33;;;;;;;3.13;2.03;;;;;;;-148.56;100.00;61375.16;4979936;28;20042;-27
2021/08/20 13:19:33;;;;;;;5.07;2.53;;;;;;;28.46;36.36;96628.06;4980198;28;20026;-26
2021/08/20 13:22:57;;;;;;;8.55;2.17;;;;;;;-148.56;100.00;61375.16;4990105;28;20061;-27
2021/08/20 13:26:21;;;;;;;6.20;2.40;;;;;;;-148.56;100.00;61375.16;4992800;28;20311;-29
2021/08/20 13:29:45;;;;;;;6.72;2.40;;;;;;;-148.56;100.00;61375.16;4991919;28;20334;-28
2021/08/20 13:33:09;;;;;;;4.25;2.30;;;;;;;-148.56;100.00;61375.16;4989044;28;20030;-29
2021/08/20 13:36:33;;;;;;;3.10;1.95;;;;;;;-148.56;100.00;61375.16;4994759;28;20144;-27
2021/08/20 13:39:57;;;;;;;4.60;2.15;;;;;;;-148.56;100.00;61375.16;4995626;28;20026;-29
2021/08/20 13:42:31;;;;;;;4.00;2.30;;;;;;;-148.56;0.00;96628.22;4994072;28;20048;-26
2021/08/20 13:45:05;;;;;;;5.88;2.40;;;;;;;-148.56;100.00;61375.16;4990858;28;20038;-29
2021/08/20 13:48:28;;;;;;;6.40;2.20;;;;;;;-148.56;100.00;61375.16;4998078;28;20042;-30
2021/08/20 13:51:52;;;;;;;2.72;2.10;;;;;;;-148.56;100.00;61375.16;4998034;28;20041;-27
2021/08/20 13:55:16;;;;;;;5.88;2.28;;;;;;;-148.56;100.00;61375.16;4996151;28;20029;-28
2021/08/20 13:58:41;;;;;;;3.53;2.28;;;;;;;-148.56;100.00;61375.16;4997759;28;20464;-28
2021/08/20 14:02:01;;;;;;;3.08;2.08;;;;;;;-148.56;100.00;61375.16;4996490;28;20107;-28
2021/08/20 14:05:26;;;;;;;4.28;2.00;;;;;;;-148.56;100.00;61375.16;4993763;28;20597;-29
2021/08/20 14:08:50;;;;;;;3.53;2.10;;;;;;;-148.56;100.00;61375.16;4998171;28;20029;-26
2021/08/20 14:11:36;;;;;;;3.53;1.98;;;;;;;-148.56;100.00;61375.16;5000816;28;20088;-28
2021/08/20 14:15:00;;;;;;;6.18;2.35;;;;;;;-148.56;100.00;61375.16;4998433;28;20112;-29
2021/08/20 14:18:24;;;;;;;2.63;1.65;;;;;;;-148.56;100.00;61375.16;4997259;28;20041;-27
2021/08/20 14:21:09;;;;;;;3.47;2.08;;;;;;;-148.56;100.00;61375.16;5000528;28;20040;-30
2021/08/20 14:24:08;;;;;;;2.30;1.80;;;;;;;-148.56;100.00;61375.16;4999518;28;20496;-28
2021/08/20 14:27:32;;;;;;;3.53;2.20;;;;;;;-148.56;100.00;61375.16;4996501;28;20133;-24
2021/08/20 14:30:42;;;;;;;4.88;2.20;;;;;;;-148.56;100.00;61375.16;5000477;28;20029;-28
2021/08/20 14:34:06;;;;;;;4.93;2.30;;;;;;;-148.56;100.00;61375.16;4999695;28;20061;-27
2021/08/20 14:37:27;;;;;;;4.05;2.05;;;;;;;-148.56;100.00;61375.16;5001707;28;20096;-29
2021/08/20 14:39:53;;;;;;;3.88;1.88;;;;;;;28.46;36.36;96628.06;4996065;28;20038;-29
2021/08/20 14:42:28;;;;;;;2.72;1.90;;;;;;;-148.56;36.36;96628.06;5000315;28;20160;-30
2021/08/20 14:45:52;;;;;;;3.53;2.17;;;;;;;-148.56;100.00;61375.16;4997886;28;20040;-27
2021/08/20 14:49:16;;;;;;;2.53;1.60;;;;;;;-148.56;100.00;61375.16;5001355;28;20065;-27
2021/08/20 14:52:40;;;;;;;2.75;1.80;;;;;;;-148.56;100.00;61375.16;4999912;28;20026;-29
2021/08/20 14:56:04;;;;;;;3.80;1.98;;;;;;;-148.56;100.00;61375.16;4987050;28;20111;-30
2021/08/20 14:59:28;;;;;;;3.47;2.20;;;;;;;-148.56;100.00;61375.16;5000768;28;20033;-28
2021/08/20 15:02:52;;;;;;;4.30;2.30;;;;;;;-148.56;100.00;61375.16;5000948;28;20742;-28
2021/08/20 15:06:18;;;;;;;3.28;2.00;;;;;;;-148.56;100.00;61375.16;4997865;28;20040;-27
2021/08/20 15:09:43;;;;;;;2.95;1.80;;;;;;;-148.56;100.00;61375.16;5001812;28;20136;-29
2021/08/20 15:13:07;;;;;;;3.40;1.98;;;;;;;-148.56;100.00;61375.16;4997652;28;20104;-28
2021/08/20 15:15:40;;;;;;;5.32;2.45;;;;;;;-148.56;100.00;61375.16;5000336;28;20500;-27
2021/08/20 15:18:21;;;;;;;2.33;1.75;;;;;;;28.46;36.36;96628.06;4998904;28;20065;-28
2021/08/20 15:21:39;;;;;;;2.50;1.77;;;;;;;-148.56;100.00;61375.16;4990100;28;20042;-28
2021/08/20 15:24:46;;;;;;;3.70;1.73;;;;;;;-148.56;100.00;61375.16;4998936;28;20030;-26